Time;durP1;ratioP1;P1;durP2;ratioP2;P2;SDS_P1;SDS_P2;PMS_P1;PMS_P2;Temp;Humidity;BMP_temperature;BMP_pressure;BME280_temperature;BME280_humidity;BME280_pressure;Samples;Min_cycle;Max_cycle;Signal;HPM_P1;HPM_P2
2023/12/24 00:01:00;;;;;;;;;5.67;5.67;;;;;;;;5085858;27;45386;-76
2023/12/24 00:03:25;;;;;;;;;8.00;6.00;;;;;;;;5086648;27;45920;-77
2023/12/24 00:05:50;;;;;;;;;7.67;7.67;;;;;;;;5087569;28;45548;-77
2023/12/24 00:08:15;;;;;;;;;5.00;5.00;;;;;;;;5087109;28;46978;-77
2023/12/24 00:10:40;;;;;;;;;10.00;7.67;;;;;;;;5091222;27;45308;-77
2023/12/24 00:13:06;;;;;;;;;7.67;6.00;;;;;;;;5105191;27;45555;-77
2023/12/24 00:15:31;;;;;;;;;5.00;5.00;;;;;;;;5104929;27;46331;-77
2023/12/24 00:17:56;;;;;;;;;8.33;6.00;;;;;;;;5087657;28;48008;-76
2023/12/24 00:20:21;;;;;;;;;6.67;5.33;;;;;;;;5088973;28;45274;-76
2023/12/24 00:23:02;;;;;;;;;9.33;8.00;;;;;;;;5102407;27;45508;-77
2023/12/24 00:25:27;;;;;;;;;6.67;6.67;;;;;;;;5101052;27;46642;-77
2023/12/24 00:27:53;;;;;;;;;5.00;5.00;;;;;;;;5085347;28;47203;-77
2023/12/24 00:30:18;;;;;;;;;7.33;7.33;;;;;;;;5085154;28;45317;-76
2023/12/24 00:32:43;;;;;;;;;8.00;8.00;;;;;;;;5084826;28;45342;-77
2023/12/24 00:35:10;;;;;;;;;6.33;6.33;;;;;;;;5083825;28;45591;-78
2023/12/24 00:37:35;;;;;;;;;8.00;8.00;;;;;;;;5087481;27;45669;-76
2023/12/24 00:40:00;;;;;;;;;6.00;5.67;;;;;;;;5088294;27;45438;-76
2023/12/24 00:42:26;;;;;;;;;6.67;6.67;;;;;;;;5085400;28;45405;-76
2023/12/24 00:44:51;;;;;;;;;7.00;7.00;;;;;;;;5084970;28;46168;-75
2023/12/24 00:47:17;;;;;;;;;9.33;6.33;;;;;;;;5084049;28;46622;-77
2023/12/24 00:49:42;;;;;;;;;6.67;5.00;;;;;;;;5104217;27;45331;-78
2023/12/24 00:52:07;;;;;;;;;5.00;5.00;;;;;;;;5088664;28;45230;-76
2023/12/24 00:54:32;;;;;;;;;7.00;7.00;;;;;;;;5103306;27;47366;-77
2023/12/24 00:56:58;;;;;;;;;5.00;5.00;;;;;;;;5094215;27;46504;-77
2023/12/24 00:59:23;;;;;;;;;5.00;4.67;;;;;;;;5070954;28;45392;-76
2023/12/24 01:01:48;;;;;;;;;3.67;3.67;;;;;;;;5068314;28;45332;-76
2023/12/24 01:04:13;;;;;;;;;5.00;5.00;;;;;;;;5086951;28;45370;-76
2023/12/24 01:06:38;;;;;;;;;4.00;4.00;;;;;;;;5085955;28;46694;-77
2023/12/24 01:09:03;;;;;;;;;5.00;5.00;;;;;;;;5088388;28;45241;-77
2023/12/24 01:11:29;;;;;;;;;4.00;4.00;;;;;;;;5068112;28;45311;-77
2023/12/24 01:13:54;;;;;;;;;5.67;5.00;;;;;;;;5068098;28;46642;-76
2023/12/24 01:16:19;;;;;;;;;4.00;4.00;;;;;;;;5087320;28;45298;-76
2023/12/24 01:18:46;;;;;;;;;5.00;4.67;;;;;;;;5084767;28;45315;-76
2023/12/24 01:21:11;;;;;;;;;7.00;5.00;;;;;;;;5085076;28;45297;-76
2023/12/24 01:23:36;;;;;;;;;4.33;3.67;;;;;;;;5087665;28;45347;-77
2023/12/24 01:26:01;;;;;;;;;5.00;4.67;;;;;;;;5068225;28;48158;-75
2023/12/24 01:28:26;;;;;;;;;3.67;3.67;;;;;;;;5069109;28;45279;-76
2023/12/24 01:30:52;;;;;;;;;4.00;4.00;;;;;;;;5087839;28;45679;-76
2023/12/24 01:33:17;;;;;;;;;5.67;5.67;;;;;;;;5069462;28;45841;-76
2023/12/24 01:35:43;;;;;;;;;3.33;3.33;;;;;;;;5087093;28;45791;-76
2023/12/24 01:38:08;;;;;;;;;4.67;4.67;;;;;;;;5068580;28;45856;-77
2023/12/24 01:40:34;;;;;;;;;4.00;4.00;;;;;;;;5088525;28;45571;-76
2023/12/24 01:42:59;;;;;;;;;4.00;4.00;;;;;;;;5086352;28;45382;-77
2023/12/24 01:45:24;;;;;;;;;3.00;3.00;;;;;;;;5084979;28;45533;-78
2023/12/24 01:47:49;;;;;;;;;4.00;4.00;;;;;;;;5086587;28;45326;-76
2023/12/24 01:50:14;;;;;;;;;3.00;3.00;;;;;;;;5087212;28;45542;-76
2023/12/24 01:52:40;;;;;;;;;3.33;3.00;;;;;;;;5065855;28;46219;-77
2023/12/24 01:55:06;;;;;;;;;3.33;3.33;;;;;;;;5087968;28;45596;-75
2023/12/24 01:57:32;;;;;;;;;5.00;5.00;;;;;;;;5074459;28;45464;-78
2023/12/24 01:59:58;;;;;;;;;5.00;4.00;;;;;;;;5089554;27;45376;-77
2023/12/24 02:02:26;;;;;;;;;4.00;4.00;;;;;;;;5102392;27;46181;-76
2023/12/24 02:04:52;;;;;;;;;2.00;2.00;;;;;;;;5102436;27;47352;-76
2023/12/24 02:07:18;;;;;;;;;3.00;3.00;;;;;;;;5087185;28;45478;-77
2023/12/24 02:09:43;;;;;;;;;2.67;2.67;;;;;;;;5085975;27;45219;-77
2023/12/24 02:12:08;;;;;;;;;3.33;2.33;;;;;;;;5102710;27;45823;-76
2023/12/24 02:14:33;;;;;;;;;3.00;3.00;;;;;;;;5087293;28;46555;-75
2023/12/24 02:16:59;;;;;;;;;4.67;4.33;;;;;;;;5087167;28;45141;-77
2023/12/24 02:19:25;;;;;;;;;3.00;3.00;;;;;;;;5087637;27;45322;-77
2023/12/24 02:21:50;;;;;;;;;2.00;2.00;;;;;;;;5084452;28;45389;-76
2023/12/24 02:24:16;;;;;;;;;1.00;1.00;;;;;;;;5101642;27;48429;-77
2023/12/24 02:26:53;;;;;;;;;2.00;2.00;;;;;;;;5084818;27;45327;-76
2023/12/24 02:29:26;;;;;;;;;1.00;1.00;;;;;;;;5101777;27;45374;-76
2023/12/24 02:31:54;;;;;;;;;1.00;1.00;;;;;;;;5103266;27;45955;-76
2023/12/24 02:34:20;;;;;;;;;2.00;2.00;;;;;;;;5088076;28;45690;-76
2023/12/24 02:36:47;;;;;;;;;1.00;1.00;;;;;;;;5089067;27;45341;-75
2023/12/24 02:39:12;;;;;;;;;2.00;1.67;;;;;;;;5088290;27;45567;-75
2023/12/24 02:41:37;;;;;;;;;1.00;1.00;;;;;;;;5083967;28;46237;-77
2023/12/24 02:44:02;;;;;;;;;1.00;1.00;;;;;;;;5087754;27;45353;-76
2023/12/24 02:46:28;;;;;;;;;1.00;1.00;;;;;;;;5086466;28;45244;-76
2023/12/24 02:48:53;;;;;;;;;2.00;2.00;;;;;;;;5084354;28;45380;-77
2023/12/24 02:51:18;;;;;;;;;3.00;3.00;;;;;;;;5086952;28;45428;-76
2023/12/24 02:53:44;;;;;;;;;3.33;3.33;;;;;;;;5085139;28;46561;-76
2023/12/24 02:56:09;;;;;;;;;4.67;4.33;;;;;;;;5100715;27;45355;-77
2023/12/24 02:58:34;;;;;;;;;2.00;2.00;;;;;;;;5084075;27;45425;-76
2023/12/24 03:01:00;;;;;;;;;1.00;1.00;;;;;;;;5084093;28;45454;-75
2023/12/24 03:03:25;;;;;;;;;2.00;2.00;;;;;;;;5082550;28;46192;-76
2023/12/24 03:05:50;;;;;;;;;3.00;3.00;;;;;;;;5080324;28;45505;-76
2023/12/24 03:08:15;;;;;;;;;2.67;2.67;;;;;;;;5080646;28;45313;-76
2023/12/24 03:10:40;;;;;;;;;2.00;2.00;;;;;;;;5082960;28;45363;-76
2023/12/24 03:13:06;;;;;;;;;2.00;2.00;;;;;;;;5082581;28;47408;-76
2023/12/24 03:15:31;;;;;;;;;2.00;2.00;;;;;;;;5085760;28;45448;-77
2023/12/24 03:17:56;;;;;;;;;2.00;2.00;;;;;;;;5081249;28;45310;-76
2023/12/24 03:20:21;;;;;;;;;2.33;2.33;;;;;;;;5082345;28;45464;-76
2023/12/24 03:22:46;;;;;;;;;2.00;2.00;;;;;;;;5080204;28;46243;-78
2023/12/24 03:25:12;;;;;;;;;2.00;2.00;;;;;;;;5081180;28;46226;-76
2023/12/24 03:27:37;;;;;;;;;2.33;2.33;;;;;;;;5082968;28;45430;-78
2023/12/24 03:30:02;;;;;;;;;2.00;2.00;;;;;;;;5089051;28;45294;-78
2023/12/24 03:32:28;;;;;;;;;2.33;2.00;;;;;;;;5089139;28;46858;-77
2023/12/24 03:34:53;;;;;;;;;1.00;1.00;;;;;;;;5088749;28;45253;-77
2023/12/24 03:37:18;;;;;;;;;1.00;1.00;;;;;;;;5086598;28;45395;-76
2023/12/24 03:39:43;;;;;;;;;1.00;1.00;;;;;;;;5089635;28;45383;-77
2023/12/24 03:42:09;;;;;;;;;1.00;1.00;;;;;;;;5070842;28;47683;-77
2023/12/24 03:44:34;;;;;;;;;2.00;2.00;;;;;;;;5088476;28;45352;-76
2023/12/24 03:47:00;;;;;;;;;1.00;1.00;;;;;;;;5085977;28;45257;-77
2023/12/24 03:49:25;;;;;;;;;2.00;2.00;;;;;;;;5069420;28;46219;-76
2023/12/24 03:51:50;;;;;;;;;2.33;2.00;;;;;;;;5087846;28;48267;-77
2023/12/24 03:54:16;;;;;;;;;1.00;1.00;;;;;;;;5090367;28;45623;-77
2023/12/24 03:56:41;;;;;;;;;1.00;1.00;;;;;;;;5088210;28;45227;-76
2023/12/24 03:59:07;;;;;;;;;3.00;1.00;;;;;;;;5090219;28;45311;-76
2023/12/24 04:01:32;;;;;;;;;1.67;1.00;;;;;;;;5087078;28;46456;-76
2023/12/24 04:03:57;;;;;;;;;0.00;0.00;;;;;;;;5090181;28;45247;-77
2023/12/24 04:06:22;;;;;;;;;1.00;1.00;;;;;;;;5088248;27;45260;-76
2023/12/24 04:08:48;;;;;;;;;0.33;0.33;;;;;;;;5090139;28;45588;-77
2023/12/24 04:11:17;;;;;;;;;1.00;1.00;;;;;;;;5087055;28;47075;-77
2023/12/24 04:13:42;;;;;;;;;2.00;2.00;;;;;;;;5104279;27;45223;-78
2023/12/24 04:16:07;;;;;;;;;1.00;1.00;;;;;;;;5089539;27;45293;-78
2023/12/24 04:18:32;;;;;;;;;2.33;1.00;;;;;;;;5085744;28;45334;-78
2023/12/24 04:20:58;;;;;;;;;1.00;1.00;;;;;;;;5101423;27;46980;-78
2023/12/24 04:23:23;;;;;;;;;1.00;1.00;;;;;;;;5085577;28;45530;-77
2023/12/24 04:25:49;;;;;;;;;1.67;1.00;;;;;;;;5085738;28;45322;-77
2023/12/24 04:28:14;;;;;;;;;1.00;1.00;;;;;;;;5087740;27;47194;-77
2023/12/24 04:30:39;;;;;;;;;1.00;1.00;;;;;;;;5088156;28;45224;-76
2023/12/24 04:33:05;;;;;;;;;1.00;1.00;;;;;;;;5087291;28;45212;-78
2023/12/24 04:35:30;;;;;;;;;1.33;1.33;;;;;;;;5091453;27;45133;-77
2023/12/24 04:37:55;;;;;;;;;2.67;1.33;;;;;;;;5088925;28;45194;-78
2023/12/24 04:40:20;;;;;;;;;3.00;1.67;;;;;;;;5089857;28;45539;-77
2023/12/24 04:42:46;;;;;;;;;2.00;2.00;;;;;;;;5087977;28;45260;-78
2023/12/24 04:45:11;;;;;;;;;2.00;2.00;;;;;;;;5090021;28;45203;-76
2023/12/24 04:47:37;;;;;;;;;2.00;2.00;;;;;;;;5088185;28;45274;-77
2023/12/24 04:50:03;;;;;;;;;1.00;1.00;;;;;;;;5086331;28;45347;-77
2023/12/24 04:52:28;;;;;;;;;1.33;1.33;;;;;;;;5087008;28;45306;-76
2023/12/24 04:54:53;;;;;;;;;1.00;1.00;;;;;;;;5086048;28;45350;-76
2023/12/24 04:57:18;;;;;;;;;2.00;1.33;;;;;;;;5086774;28;45537;-77
2023/12/24 04:59:43;;;;;;;;;2.33;2.33;;;;;;;;5089560;28;45241;-76
2023/12/24 05:02:09;;;;;;;;;1.33;1.33;;;;;;;;5103798;27;45334;-78
2023/12/24 05:04:34;;;;;;;;;2.67;2.00;;;;;;;;5085078;28;45502;-76
2023/12/24 05:07:00;;;;;;;;;4.00;2.00;;;;;;;;5086477;27;45546;-77
2023/12/24 05:09:26;;;;;;;;;2.00;2.00;;;;;;;;5101239;27;47681;-76
2023/12/24 05:11:51;;;;;;;;;2.00;2.00;;;;;;;;5087463;28;45353;-75
2023/12/24 05:14:16;;;;;;;;;2.00;1.00;;;;;;;;5087045;28;45546;-78
2023/12/24 05:16:41;;;;;;;;;2.00;2.00;;;;;;;;5083170;28;45445;-76
2023/12/24 05:19:06;;;;;;;;;2.00;2.00;;;;;;;;5085227;28;46206;-77
2023/12/24 05:21:31;;;;;;;;;2.00;2.00;;;;;;;;5084609;28;45346;-76
2023/12/24 05:23:57;;;;;;;;;4.00;1.00;;;;;;;;5100831;27;45353;-77
2023/12/24 05:26:24;;;;;;;;;0.67;0.67;;;;;;;;5100769;27;47403;-78
2023/12/24 05:28:49;;;;;;;;;2.00;1.33;;;;;;;;5102828;27;47070;-77
2023/12/24 05:31:15;;;;;;;;;4.00;2.00;;;;;;;;5101887;27;45201;-77
2023/12/24 05:33:40;;;;;;;;;3.00;3.00;;;;;;;;5101468;27;45250;-78
2023/12/24 05:36:05;;;;;;;;;2.00;1.00;;;;;;;;5086733;28;45461;-76
2023/12/24 05:38:30;;;;;;;;;3.00;3.00;;;;;;;;5086872;28;46949;-76
2023/12/24 05:40:55;;;;;;;;;2.67;2.00;;;;;;;;5085886;28;45353;-77
2023/12/24 05:43:21;;;;;;;;;1.33;1.00;;;;;;;;5086405;28;45338;-76
2023/12/24 05:45:46;;;;;;;;;2.00;2.00;;;;;;;;5084888;28;45937;-77
2023/12/24 05:48:11;;;;;;;;;3.00;3.00;;;;;;;;5086648;28;45314;-77
2023/12/24 05:50:36;;;;;;;;;2.67;2.67;;;;;;;;5083337;28;45278;-76
2023/12/24 05:53:01;;;;;;;;;3.00;3.00;;;;;;;;5083810;28;45268;-76
2023/12/24 05:55:27;;;;;;;;;1.67;1.67;;;;;;;;5084437;28;45267;-77
2023/12/24 05:57:52;;;;;;;;;3.00;1.33;;;;;;;;5089790;27;47529;-76
2023/12/24 06:00:17;;;;;;;;;4.00;4.00;;;;;;;;5081493;28;45324;-77
2023/12/24 06:02:44;;;;;;;;;2.33;2.33;;;;;;;;5082691;28;45701;-77
2023/12/24 06:05:09;;;;;;;;;4.00;3.33;;;;;;;;5081303;28;46518;-78
2023/12/24 06:07:35;;;;;;;;;3.67;3.67;;;;;;;;5083198;27;45404;-76
2023/12/24 06:10:00;;;;;;;;;2.67;2.67;;;;;;;;5083792;28;45327;-75
2023/12/24 06:12:25;;;;;;;;;2.00;2.00;;;;;;;;5063595;28;45381;-77
2023/12/24 06:14:50;;;;;;;;;1.00;1.00;;;;;;;;5082169;28;45420;-76
2023/12/24 06:17:15;;;;;;;;;1.00;1.00;;;;;;;;5084256;28;45345;-77
2023/12/24 06:19:40;;;;;;;;;3.00;2.00;;;;;;;;5080930;28;45966;-76
2023/12/24 06:22:06;;;;;;;;;4.00;2.00;;;;;;;;5064368;28;45412;-77
2023/12/24 06:24:31;;;;;;;;;2.67;2.33;;;;;;;;5083785;28;45483;-77
2023/12/24 06:26:56;;;;;;;;;3.67;3.00;;;;;;;;5083268;28;45496;-76
2023/12/24 06:29:21;;;;;;;;;1.00;1.00;;;;;;;;5082422;28;45913;-78
2023/12/24 06:31:47;;;;;;;;;1.00;1.00;;;;;;;;5084582;28;45418;-75
2023/12/24 06:34:12;;;;;;;;;2.33;1.67;;;;;;;;5082879;28;46878;-76
2023/12/24 06:36:37;;;;;;;;;5.00;2.33;;;;;;;;5064585;28;47225;-76
2023/12/24 06:39:02;;;;;;;;;2.00;2.00;;;;;;;;5082622;28;45324;-76
2023/12/24 06:41:28;;;;;;;;;2.33;2.33;;;;;;;;5065142;28;45567;-76
2023/12/24 06:43:53;;;;;;;;;0.00;0.00;;;;;;;;5065676;28;45806;-76
2023/12/24 06:46:18;;;;;;;;;3.00;3.00;;;;;;;;5083701;28;45501;-76
2023/12/24 06:48:43;;;;;;;;;6.00;2.00;;;;;;;;5064724;28;45483;-76
2023/12/24 06:51:08;;;;;;;;;2.00;2.00;;;;;;;;5083475;28;45338;-77
2023/12/24 06:53:34;;;;;;;;;3.67;3.00;;;;;;;;5063104;28;47004;-77
2023/12/24 06:55:59;;;;;;;;;5.33;2.00;;;;;;;;5080856;28;45313;-76
2023/12/24 06:58:24;;;;;;;;;4.00;2.00;;;;;;;;5063043;28;45371;-75
2023/12/24 07:00:50;;;;;;;;;2.00;1.67;;;;;;;;5083229;28;45620;-74
2023/12/24 07:03:15;;;;;;;;;4.00;1.67;;;;;;;;5063480;28;45965;-76
2023/12/24 07:05:41;;;;;;;;;3.33;2.00;;;;;;;;5078727;28;47085;-77
2023/12/24 07:08:07;;;;;;;;;3.00;1.33;;;;;;;;5081909;28;45271;-78
2023/12/24 07:10:33;;;;;;;;;3.00;2.00;;;;;;;;5083728;28;45209;-77
2023/12/24 07:12:58;;;;;;;;;1.67;1.67;;;;;;;;5088106;28;45424;-76
2023/12/24 07:15:23;;;;;;;;;4.00;2.67;;;;;;;;5074089;28;47127;-78
2023/12/24 07:17:48;;;;;;;;;2.00;2.00;;;;;;;;5089550;28;45200;-77
2023/12/24 07:20:14;;;;;;;;;2.33;2.33;;;;;;;;5090540;28;45522;-78
2023/12/24 07:22:39;;;;;;;;;2.00;2.00;;;;;;;;5087177;28;46438;-78
2023/12/24 07:25:05;;;;;;;;;4.00;4.00;;;;;;;;5088485;28;45543;-77
2023/12/24 07:27:30;;;;;;;;;3.67;2.67;;;;;;;;5086215;28;45748;-77
2023/12/24 07:29:56;;;;;;;;;5.00;4.67;;;;;;;;5088816;28;45473;-77
2023/12/24 07:32:21;;;;;;;;;5.00;3.00;;;;;;;;5089035;28;45633;-76
2023/12/24 07:34:46;;;;;;;;;3.00;2.00;;;;;;;;5086728;28;47036;-79
2023/12/24 07:37:13;;;;;;;;;3.33;2.67;;;;;;;;5070991;28;45489;-78
2023/12/24 07:39:39;;;;;;;;;4.00;3.00;;;;;;;;5088431;28;45268;-77
2023/12/24 07:42:04;;;;;;;;;3.67;3.67;;;;;;;;5086339;28;45895;-76
2023/12/24 07:44:29;;;;;;;;;3.00;2.67;;;;;;;;5088054;28;45422;-77
2023/12/24 07:46:54;;;;;;;;;6.67;4.67;;;;;;;;5088710;28;45395;-77
2023/12/24 07:49:19;;;;;;;;;5.67;2.00;;;;;;;;5072092;28;45496;-77
2023/12/24 07:51:47;;;;;;;;;2.00;2.00;;;;;;;;5088562;28;45617;-78
2023/12/24 07:54:12;;;;;;;;;4.00;3.00;;;;;;;;5070164;28;48485;-76
2023/12/24 07:56:37;;;;;;;;;2.67;2.67;;;;;;;;5089304;27;45353;-78
2023/12/24 07:59:03;;;;;;;;;3.33;3.33;;;;;;;;5069107;28;45389;-78
2023/12/24 08:01:28;;;;;;;;;4.00;4.00;;;;;;;;5088602;28;45329;-77
2023/12/24 08:03:54;;;;;;;;;1.67;1.67;;;;;;;;5085938;28;46448;-79
2023/12/24 08:06:21;;;;;;;;;3.00;2.00;;;;;;;;5085879;28;45373;-79
2023/12/24 08:08:46;;;;;;;;;5.33;4.00;;;;;;;;5086580;28;45291;-77
2023/12/24 08:11:11;;;;;;;;;2.00;2.00;;;;;;;;5087740;28;45418;-79
2023/12/24 08:13:36;;;;;;;;;4.00;2.67;;;;;;;;5089456;28;46689;-79
2023/12/24 08:16:02;;;;;;;;;5.00;2.33;;;;;;;;5087527;28;45307;-80
2023/12/24 08:18:27;;;;;;;;;4.67;4.33;;;;;;;;5084394;28;45443;-79
2023/12/24 08:20:55;;;;;;;;;4.33;4.33;;;;;;;;5086119;28;45317;-78
2023/12/24 08:23:20;;;;;;;;;3.00;3.00;;;;;;;;5066493;28;48313;-79
2023/12/24 08:25:45;;;;;;;;;4.00;2.33;;;;;;;;5064574;28;45273;-79
2023/12/24 08:28:10;;;;;;;;;3.33;3.33;;;;;;;;5082802;28;45324;-78
2023/12/24 08:30:36;;;;;;;;;5.00;3.67;;;;;;;;5085842;27;45238;-77
2023/12/24 08:33:01;;;;;;;;;2.33;2.33;;;;;;;;5102366;27;46688;-78
2023/12/24 08:35:26;;;;;;;;;4.33;3.00;;;;;;;;5100889;27;45212;-77
2023/12/24 08:37:51;;;;;;;;;4.00;4.00;;;;;;;;5102766;27;45329;-77
2023/12/24 08:40:17;;;;;;;;;3.00;3.00;;;;;;;;5102385;27;45609;-77
2023/12/24 08:42:42;;;;;;;;;5.33;3.33;;;;;;;;5102693;27;45357;-78
2023/12/24 08:45:08;;;;;;;;;3.00;3.00;;;;;;;;5102974;27;45373;-76
2023/12/24 08:47:33;;;;;;;;;4.00;4.00;;;;;;;;5102544;27;45283;-76
2023/12/24 08:49:59;;;;;;;;;4.33;3.67;;;;;;;;5100589;27;46955;-76
2023/12/24 08:52:24;;;;;;;;;5.00;4.33;;;;;;;;5102066;27;45280;-77
2023/12/24 08:54:50;;;;;;;;;3.00;3.00;;;;;;;;5092860;27;45422;-77
2023/12/24 08:57:15;;;;;;;;;2.00;2.00;;;;;;;;5066529;28;45351;-77
2023/12/24 08:59:40;;;;;;;;;4.00;2.00;;;;;;;;5081438;28;45396;-78
2023/12/24 09:02:06;;;;;;;;;2.00;2.00;;;;;;;;5081288;28;48352;-78
2023/12/24 09:04:31;;;;;;;;;5.00;3.00;;;;;;;;5081675;28;45615;-78
2023/12/24 09:06:56;;;;;;;;;3.00;2.33;;;;;;;;5080612;28;45260;-79
2023/12/24 09:09:21;;;;;;;;;4.67;3.00;;;;;;;;5082184;28;45421;-78
2023/12/24 09:11:47;;;;;;;;;4.33;4.33;;;;;;;;5081381;28;45352;-76
2023/12/24 09:14:12;;;;;;;;;4.00;4.00;;;;;;;;5081532;27;45330;-80
2023/12/24 09:16:38;;;;;;;;;4.67;4.67;;;;;;;;5084094;27;45497;-82
2023/12/24 09:19:03;;;;;;;;;4.00;2.67;;;;;;;;5082304;28;45413;-79
2023/12/24 09:21:28;;;;;;;;;5.67;5.33;;;;;;;;5082970;28;45487;-81
2023/12/24 09:23:54;;;;;;;;;5.67;5.67;;;;;;;;5082823;28;45429;-82
2023/12/24 09:26:20;;;;;;;;;3.33;3.33;;;;;;;;5083016;28;45284;-81
2023/12/24 09:28:45;;;;;;;;;6.00;5.00;;;;;;;;5083066;28;46020;-81
2023/12/24 09:31:10;;;;;;;;;4.00;2.00;;;;;;;;5081166;28;48362;-84
2023/12/24 09:33:35;;;;;;;;;5.67;5.00;;;;;;;;5064314;28;45222;-79
2023/12/24 09:36:06;;;;;;;;;4.00;3.00;;;;;;;;5080482;28;45586;-80
2023/12/24 09:38:32;;;;;;;;;4.33;3.00;;;;;;;;5083211;28;45309;-79
2023/12/24 09:40:57;;;;;;;;;5.00;2.00;;;;;;;;5063192;28;47129;-79
2023/12/24 09:43:24;;;;;;;;;3.67;3.67;;;;;;;;5062360;28;46057;-79
2023/12/24 09:45:49;;;;;;;;;7.00;6.00;;;;;;;;5080967;28;45489;-78
2023/12/24 09:48:15;;;;;;;;;3.33;3.33;;;;;;;;5081079;28;45393;-78
2023/12/24 09:50:40;;;;;;;;;4.00;4.00;;;;;;;;5081410;28;46316;-77
2023/12/24 09:53:06;;;;;;;;;5.67;4.67;;;;;;;;5080871;28;45437;-77
2023/12/24 09:55:31;;;;;;;;;4.00;3.33;;;;;;;;5079261;28;46946;-78
2023/12/24 09:57:56;;;;;;;;;3.00;3.00;;;;;;;;5058297;28;46973;-78
2023/12/24 10:00:22;;;;;;;;;5.00;4.00;;;;;;;;5079854;28;46721;-78
2023/12/24 10:02:47;;;;;;;;;3.00;3.00;;;;;;;;5082231;28;45173;-79
2023/12/24 10:05:14;;;;;;;;;3.67;3.33;;;;;;;;5064925;28;45300;-79
2023/12/24 10:07:39;;;;;;;;;7.33;6.00;;;;;;;;5079734;28;47312;-78
2023/12/24 10:10:07;;;;;;;;;2.33;2.33;;;;;;;;5061960;28;48375;-80
2023/12/24 10:12:32;;;;;;;;;4.00;4.00;;;;;;;;5082228;28;45327;-80
2023/12/24 10:14:58;;;;;;;;;4.00;4.00;;;;;;;;5081100;28;45267;-81
2023/12/24 10:17:26;;;;;;;;;4.33;3.67;;;;;;;;5067543;28;47312;-82
2023/12/24 10:19:52;;;;;;;;;4.00;4.00;;;;;;;;5084635;28;46639;-82
2023/12/24 10:22:22;;;;;;;;;5.00;5.00;;;;;;;;5064700;28;45330;-80
2023/12/24 10:24:47;;;;;;;;;5.33;5.00;;;;;;;;5079179;28;45464;-82
2023/12/24 10:27:14;;;;;;;;;4.67;4.33;;;;;;;;5062077;28;46255;-83
2023/12/24 10:29:40;;;;;;;;;4.67;4.67;;;;;;;;5080904;28;45640;-80
2023/12/24 10:32:06;;;;;;;;;4.00;3.67;;;;;;;;5080647;28;45294;-79
2023/12/24 10:34:33;;;;;;;;;4.00;3.00;;;;;;;;5081345;27;45278;-78
2023/12/24 10:36:59;;;;;;;;;2.67;2.00;;;;;;;;5080085;28;45390;-78
2023/12/24 10:39:25;;;;;;;;;5.00;4.33;;;;;;;;5063138;28;46428;-80
2023/12/24 10:41:52;;;;;;;;;1.00;1.00;;;;;;;;5061662;28;45367;-79
2023/12/24 10:44:17;;;;;;;;;3.00;3.00;;;;;;;;5082759;28;45368;-79
2023/12/24 10:46:43;;;;;;;;;4.00;4.00;;;;;;;;5079323;28;45528;-79
2023/12/24 10:49:08;;;;;;;;;3.00;3.00;;;;;;;;5078104;28;47295;-79
2023/12/24 10:51:33;;;;;;;;;5.33;5.33;;;;;;;;5079823;28;45303;-79
2023/12/24 10:53:59;;;;;;;;;4.33;4.33;;;;;;;;5061549;28;45387;-79
2023/12/24 10:56:27;;;;;;;;;5.67;5.00;;;;;;;;5061246;28;46003;-78
2023/12/24 10:59:12;;;;;;;;;3.00;3.00;;;;;;;;5059659;28;47525;-80
2023/12/24 11:01:38;;;;;;;;;5.00;4.67;;;;;;;;5041820;28;45292;-79
2023/12/24 11:04:03;;;;;;;;;3.67;3.67;;;;;;;;5063048;28;45293;-79
2023/12/24 11:06:38;;;;;;;;;5.00;4.33;;;;;;;;5080740;28;45393;-79
2023/12/24 11:09:29;;;;;;;;;4.00;4.00;;;;;;;;5080235;28;46601;-79
2023/12/24 11:12:01;;;;;;;;;4.00;3.00;;;;;;;;5081501;28;45333;-79
2023/12/24 11:14:35;;;;;;;;;4.67;4.00;;;;;;;;5064596;28;45365;-79
2023/12/24 11:17:00;;;;;;;;;6.33;4.33;;;;;;;;5080223;28;45530;-80
2023/12/24 11:19:25;;;;;;;;;3.67;3.67;;;;;;;;5079062;28;48580;-80
2023/12/24 11:22:09;;;;;;;;;3.00;2.33;;;;;;;;5080703;28;45332;-81
2023/12/24 11:24:41;;;;;;;;;6.33;5.33;;;;;;;;5083217;28;45524;-83
2023/12/24 11:27:08;;;;;;;;;4.33;3.67;;;;;;;;5079481;28;45368;-79
2023/12/24 11:29:42;;;;;;;;;3.33;3.33;;;;;;;;5078864;28;45921;-79
2023/12/24 11:32:30;;;;;;;;;6.00;5.00;;;;;;;;5080351;28;45294;-80
2023/12/24 11:34:57;;;;;;;;;4.00;3.67;;;;;;;;5062847;28;45534;-79
2023/12/24 11:37:26;;;;;;;;;6.67;4.00;;;;;;;;5059257;28;46428;-80
2023/12/24 11:40:05;;;;;;;;;3.67;3.33;;;;;;;;5076790;28;45362;-78
2023/12/24 11:42:49;;;;;;;;;4.33;3.67;;;;;;;;5079100;28;45342;-79
2023/12/24 11:45:26;;;;;;;;;4.67;4.67;;;;;;;;5079295;28;45590;-78
2023/12/24 11:47:52;;;;;;;;;4.00;3.33;;;;;;;;5078751;28;45463;-78
2023/12/24 11:50:17;;;;;;;;;4.00;4.00;;;;;;;;5077456;28;46346;-78
2023/12/24 11:52:43;;;;;;;;;6.00;5.00;;;;;;;;5077864;28;45450;-79
2023/12/24 11:55:10;;;;;;;;;4.00;4.00;;;;;;;;5060602;28;45367;-80
2023/12/24 11:57:36;;;;;;;;;8.67;5.67;;;;;;;;5079550;28;45401;-83
2023/12/24 12:00:01;;;;;;;;;4.33;4.00;;;;;;;;5085968;28;46139;-80
2023/12/24 12:02:26;;;;;;;;;6.67;3.00;;;;;;;;5079691;28;45481;-80
2023/12/24 12:04:54;;;;;;;;;2.33;2.33;;;;;;;;5062308;28;45307;-79
2023/12/24 12:07:19;;;;;;;;;3.67;3.67;;;;;;;;5080568;27;47241;-81
2023/12/24 12:09:44;;;;;;;;;3.67;3.33;;;;;;;;5082405;28;45546;-81
2023/12/24 12:12:09;;;;;;;;;2.00;2.00;;;;;;;;5082235;28;45415;-80
2023/12/24 12:14:34;;;;;;;;;3.00;3.00;;;;;;;;5082408;28;45658;-80
2023/12/24 12:16:59;;;;;;;;;2.33;2.33;;;;;;;;5080463;28;45540;-80
2023/12/24 12:19:25;;;;;;;;;3.00;2.00;;;;;;;;5079906;28;45614;-76
2023/12/24 12:21:50;;;;;;;;;2.33;2.33;;;;;;;;5079597;28;45532;-79
2023/12/24 12:24:15;;;;;;;;;4.00;3.67;;;;;;;;5081250;28;45529;-78
2023/12/24 12:26:40;;;;;;;;;2.67;2.67;;;;;;;;5082147;28;45406;-78
2023/12/24 12:29:05;;;;;;;;;4.33;4.33;;;;;;;;5064097;28;48563;-78
2023/12/24 12:31:30;;;;;;;;;4.00;3.00;;;;;;;;5064801;28;45256;-79
2023/12/24 12:33:56;;;;;;;;;3.00;3.00;;;;;;;;5085798;28;45353;-78
2023/12/24 12:36:21;;;;;;;;;0.67;0.67;;;;;;;;5084816;28;45552;-79
2023/12/24 12:38:46;;;;;;;;;4.33;4.33;;;;;;;;5091597;28;45368;-78
2023/12/24 12:41:11;;;;;;;;;3.33;3.33;;;;;;;;5091057;28;45726;-79
2023/12/24 12:43:36;;;;;;;;;3.67;3.67;;;;;;;;5090761;28;45363;-78
2023/12/24 12:46:02;;;;;;;;;4.67;4.33;;;;;;;;5089509;28;46313;-78
2023/12/24 12:48:27;;;;;;;;;4.33;3.67;;;;;;;;5091858;28;45441;-79
2023/12/24 12:50:53;;;;;;;;;6.33;5.67;;;;;;;;5084419;28;45328;-80
2023/12/24 12:53:25;;;;;;;;;4.33;4.00;;;;;;;;5066211;28;45333;-78
2023/12/24 12:55:50;;;;;;;;;2.67;2.33;;;;;;;;5090401;28;45409;-78
2023/12/24 12:58:15;;;;;;;;;4.00;4.00;;;;;;;;5089710;28;46280;-79
2023/12/24 13:00:41;;;;;;;;;3.33;3.33;;;;;;;;5089235;28;45457;-80
2023/12/24 13:03:07;;;;;;;;;4.00;3.00;;;;;;;;5083652;28;45279;-79
2023/12/24 13:05:32;;;;;;;;;4.00;3.67;;;;;;;;5087285;28;45344;-79
2023/12/24 13:07:58;;;;;;;;;6.33;5.67;;;;;;;;5085213;28;47062;-79
2023/12/24 13:10:30;;;;;;;;;4.67;4.33;;;;;;;;5082880;28;45458;-79
2023/12/24 13:13:07;;;;;;;;;6.00;5.33;;;;;;;;5083777;28;45449;-79
2023/12/24 13:15:32;;;;;;;;;4.00;2.00;;;;;;;;5082407;28;46231;-78
2023/12/24 13:18:17;;;;;;;;;5.33;5.33;;;;;;;;5093027;28;45356;-79
2023/12/24 13:20:44;;;;;;;;;1.33;1.33;;;;;;;;5085297;28;45267;-80
2023/12/24 13:23:09;;;;;;;;;4.33;4.00;;;;;;;;5083938;28;45355;-79
2023/12/24 13:25:38;;;;;;;;;2.00;1.67;;;;;;;;5081569;28;45342;-78
2023/12/24 13:28:03;;;;;;;;;4.33;4.00;;;;;;;;5080190;28;47111;-78
2023/12/24 13:30:28;;;;;;;;;3.00;0.00;;;;;;;;5084217;28;45407;-79
2023/12/24 13:32:53;;;;;;;;;4.00;3.00;;;;;;;;5086707;28;45244;-80
2023/12/24 13:35:19;;;;;;;;;5.67;5.00;;;;;;;;5084190;28;45550;-82
2023/12/24 13:37:44;;;;;;;;;7.00;4.67;;;;;;;;5084284;28;45350;-79
2023/12/24 13:40:10;;;;;;;;;5.67;4.00;;;;;;;;5081785;28;45278;-79
2023/12/24 13:42:36;;;;;;;;;4.33;3.00;;;;;;;;5064767;28;45423;-79
2023/12/24 13:45:01;;;;;;;;;4.00;3.00;;;;;;;;5064307;28;46084;-80
2023/12/24 13:47:27;;;;;;;;;2.00;2.00;;;;;;;;5065323;28;47290;-81
2023/12/24 13:49:55;;;;;;;;;5.00;3.00;;;;;;;;5081953;28;45364;-80
2023/12/24 13:52:21;;;;;;;;;4.00;3.00;;;;;;;;5068338;28;45245;-80
2023/12/24 13:54:46;;;;;;;;;2.00;2.00;;;;;;;;5084031;28;45569;-79
2023/12/24 13:57:11;;;;;;;;;3.00;3.00;;;;;;;;5066549;28;46941;-80
2023/12/24 13:59:36;;;;;;;;;2.00;2.00;;;;;;;;5081738;27;45228;-79
2023/12/24 14:02:02;;;;;;;;;2.00;2.00;;;;;;;;5081743;28;45266;-78
2023/12/24 14:04:27;;;;;;;;;4.00;2.00;;;;;;;;5085731;28;45218;-79
2023/12/24 14:06:52;;;;;;;;;2.00;2.00;;;;;;;;5081810;28;48332;-79
2023/12/24 14:09:18;;;;;;;;;2.00;2.00;;;;;;;;5080446;28;45286;-79
2023/12/24 14:11:44;;;;;;;;;1.33;1.00;;;;;;;;5080629;28;45440;-79
2023/12/24 14:14:09;;;;;;;;;2.00;2.00;;;;;;;;5081331;28;45279;-80
2023/12/24 14:16:34;;;;;;;;;2.00;1.00;;;;;;;;5063852;28;47345;-80
2023/12/24 14:18:59;;;;;;;;;2.00;2.00;;;;;;;;5079739;28;45467;-79
2023/12/24 14:21:24;;;;;;;;;0.67;0.67;;;;;;;;5076889;28;45485;-79
2023/12/24 14:23:50;;;;;;;;;3.00;2.00;;;;;;;;5079488;28;45277;-79
2023/12/24 14:26:15;;;;;;;;;3.00;2.00;;;;;;;;5081035;28;45409;-79
2023/12/24 14:28:40;;;;;;;;;4.33;3.00;;;;;;;;5061874;28;45382;-74
2023/12/24 14:31:06;;;;;;;;;4.00;4.00;;;;;;;;5079975;28;45555;-74
2023/12/24 14:33:31;;;;;;;;;3.33;2.00;;;;;;;;5077825;28;46308;-76
2023/12/24 14:35:56;;;;;;;;;1.67;1.00;;;;;;;;5061357;28;46993;-75